Time;durP1;ratioP1;P1;durP2;ratioP2;P2;SDS_P1;SDS_P2;PMS_P1;PMS_P2;Temp;Humidity;BMP_temperature;BMP_pressure;BME280_temperature;BME280_humidity;BME280_pressure;Samples;Min_cycle;Max_cycle;Signal;HPM_P1;HPM_P2
2021/01/04 00:00:53;;;;;;;5.27;4.40;;;;;;;;;;5032977;28;20961;-59
2021/01/04 00:03:34;;;;;;;6.17;5.37;;;;;;;;;;5028778;28;20548;-59
2021/01/04 00:06:25;;;;;;;5.33;4.83;;;;;;;;;;5023836;28;20460;-60
2021/01/04 00:09:02;;;;;;;5.73;4.93;;;;;;;;;;5024616;28;20494;-60
2021/01/04 00:11:39;;;;;;;5.50;4.80;;;;;;;;;;5029498;28;20511;-59
2021/01/04 00:14:21;;;;;;;5.50;5.00;;;;;;;;;;5031452;28;20460;-60
2021/01/04 00:17:27;;;;;;;7.20;5.53;;;;;;;;;;5029250;28;20793;-59
2021/01/04 00:20:08;;;;;;;5.70;5.13;;;;;;;;;;5016273;28;20944;-59
2021/01/04 00:22:51;;;;;;;5.77;5.10;;;;;;;;;;5023948;28;20507;-59
2021/01/04 00:25:34;;;;;;;4.73;4.23;;;;;;;;;;5023721;28;20585;-59
2021/01/04 00:28:08;;;;;;;4.67;4.27;;;;;;;;;;5014890;28;20548;-59
2021/01/04 00:30:46;;;;;;;6.40;4.53;;;;;;;;;;5024782;28;20462;-59
2021/01/04 00:33:30;;;;;;;8.17;5.40;;;;;;;;;;5026640;28;20455;-60
2021/01/04 00:36:05;;;;;;;4.87;4.43;;;;;;;;;;5031755;28;20488;-60
2021/01/04 00:38:57;;;;;;;5.83;4.17;;;;;;;;;;5031829;28;20452;-59
2021/01/04 00:41:24;;;;;;;5.00;4.27;;;;;;;;;;5018135;28;20948;-59
2021/01/04 00:43:54;;;;;;;4.63;4.10;;;;;;;;;;5025722;28;20449;-61
2021/01/04 00:46:27;;;;;;;5.90;5.33;;;;;;;;;;5009877;28;20455;-60
2021/01/04 00:49:03;;;;;;;6.07;4.33;;;;;;;;;;5031774;28;20544;-59
2021/01/04 00:51:37;;;;;;;4.73;4.27;;;;;;;;;;5022917;28;20502;-60
2021/01/04 00:54:13;;;;;;;4.90;4.27;;;;;;;;;;5023788;28;20457;-58
2021/01/04 00:56:42;;;;;;;5.10;4.50;;;;;;;;;;5027988;28;20774;-61
2021/01/04 00:59:16;;;;;;;4.67;4.27;;;;;;;;;;5022887;28;20930;-60
2021/01/04 01:02:10;;;;;;;5.20;4.70;;;;;;;;;;5046861;28;20459;-59
2021/01/04 01:05:00;;;;;;;5.63;4.40;;;;;;;;;;5031299;28;20460;-60
2021/01/04 01:08:03;;;;;;;5.13;4.60;;;;;;;;;;5043882;28;20787;-60
2021/01/04 01:10:32;;;;;;;5.47;4.80;;;;;;;;;;5043691;28;20955;-59
2021/01/04 01:13:15;;;;;;;5.07;4.57;;;;;;;;;;5049541;28;20457;-59
2021/01/04 01:16:03;;;;;;;5.47;4.53;;;;;;;;;;5050601;28;20449;-59
2021/01/04 01:18:33;;;;;;;4.40;4.00;;;;;;;;;;5041276;28;20470;-59
2021/01/04 01:21:02;;;;;;;5.20;4.30;;;;;;;;;;5045584;28;20918;-59
2021/01/04 01:23:28;;;;;;;3.87;3.50;;;;;;;;;;5043765;28;20498;-60
2021/01/04 01:26:44;;;;;;;5.90;4.67;;;;;;;;;;5049844;28;20461;-59
2021/01/04 01:29:39;;;;;;;5.00;4.57;;;;;;;;;;5023675;28;20668;-60
2021/01/04 01:32:06;;;;;;;4.77;4.20;;;;;;;;;;5043767;28;20890;-60
2021/01/04 01:34:50;;;;;;;5.90;4.70;;;;;;;;;;5046581;28;20460;-59
2021/01/04 01:37:41;;;;;;;4.90;4.40;;;;;;;;;;5028074;28;20513;-60
2021/01/04 01:40:13;;;;;;;4.17;3.77;;;;;;;;;;5041863;28;20965;-59
2021/01/04 01:42:54;;;;;;;4.80;3.57;;;;;;;;;;5048692;28;20970;-59
2021/01/04 01:45:26;;;;;;;4.70;3.80;;;;;;;;;;5049530;28;20463;-60
2021/01/04 01:48:17;;;;;;;3.60;3.30;;;;;;;;;;5047617;28;20456;-59
2021/01/04 01:51:03;;;;;;;4.00;3.53;;;;;;;;;;5030418;28;20480;-60
2021/01/04 01:54:05;;;;;;;4.43;3.83;;;;;;;;;;5051981;28;20456;-59
2021/01/04 01:56:48;;;;;;;4.60;3.93;;;;;;;;;;5030246;28;20451;-60
2021/01/04 01:59:25;;;;;;;3.57;3.13;;;;;;;;;;5042691;28;20480;-60
2021/01/04 02:02:02;;;;;;;3.87;3.50;;;;;;;;;;5045077;28;20456;-60
2021/01/04 02:04:50;;;;;;;4.30;3.90;;;;;;;;;;5048703;28;20957;-61
2021/01/04 02:07:36;;;;;;;6.33;4.30;;;;;;;;;;5049476;28;20491;-59
2021/01/04 02:10:19;;;;;;;5.07;4.57;;;;;;;;;;5047849;28;20521;-59
2021/01/04 02:12:51;;;;;;;6.00;4.60;;;;;;;;;;5050647;28;20465;-59
2021/01/04 02:15:24;;;;;;;5.60;4.83;;;;;;;;;;5049135;28;20461;-59
2021/01/04 02:17:58;;;;;;;5.30;4.53;;;;;;;;;;5031864;28;20985;-59
2021/01/04 02:20:38;;;;;;;5.07;3.60;;;;;;;;;;5041363;28;20464;-59
2021/01/04 02:23:20;;;;;;;8.73;6.10;;;;;;;;;;5054657;28;20544;-59
2021/01/04 02:25:48;;;;;;;5.47;4.37;;;;;;;;;;5042826;28;20471;-59
2021/01/04 02:28:16;;;;;;;5.30;4.03;;;;;;;;;;5027327;28;20470;-59
2021/01/04 02:30:42;;;;;;;3.57;3.27;;;;;;;;;;5048779;28;20570;-60
2021/01/04 02:33:08;;;;;;;3.37;3.07;;;;;;;;;;5047237;28;20457;-59
2021/01/04 02:35:37;;;;;;;4.30;3.40;;;;;;;;;;5042352;28;20530;-59
2021/01/04 02:38:02;;;;;;;4.00;3.60;;;;;;;;;;5043223;28;20488;-60
2021/01/04 02:40:28;;;;;;;3.80;3.10;;;;;;;;;;5048555;28;20461;-59
2021/01/04 02:42:53;;;;;;;3.60;3.30;;;;;;;;;;5047304;28;20216;-59
2021/01/04 02:45:21;;;;;;;4.13;3.47;;;;;;;;;;5042589;28;20225;-59
2021/01/04 02:48:10;;;;;;;3.70;3.40;;;;;;;;;;5043490;28;20306;-59
2021/01/04 02:50:56;;;;;;;3.87;3.13;;;;;;;;;;5028739;28;20480;-58
2021/01/04 02:53:36;;;;;;;3.73;3.13;;;;;;;;;;5033564;28;20532;-59
2021/01/04 02:56:15;;;;;;;2.70;2.50;;;;;;;;;;5041914;28;20798;-59
2021/01/04 02:58:50;;;;;;;3.13;2.83;;;;;;;;;;5042948;28;20492;-59
2021/01/04 03:01:35;;;;;;;3.50;3.20;;;;;;;;;;5029390;28;20456;-59
2021/01/04 03:04:01;;;;;;;3.50;3.20;;;;;;;;;;5041781;28;20951;-59
2021/01/04 03:06:40;;;;;;;4.13;2.87;;;;;;;;;;5047526;28;20535;-59
2021/01/04 03:09:07;;;;;;;3.73;3.43;;;;;;;;;;5048850;28;20213;-59
2021/01/04 03:11:33;;;;;;;3.10;2.87;;;;;;;;;;5049917;28;20469;-59
2021/01/04 03:14:22;;;;;;;4.00;3.37;;;;;;;;;;5045798;28;20485;-59
2021/01/04 03:16:56;;;;;;;3.37;3.07;;;;;;;;;;5046412;28;20238;-59
2021/01/04 03:19:23;;;;;;;3.13;2.83;;;;;;;;;;5049264;28;20483;-59
2021/01/04 03:22:00;;;;;;;3.13;2.80;;;;;;;;;;5053361;28;20468;-58
2021/01/04 03:24:26;;;;;;;3.73;3.33;;;;;;;;;;5048869;28;20471;-59
2021/01/04 03:26:57;;;;;;;3.67;3.37;;;;;;;;;;5043628;28;20467;-59
2021/01/04 03:29:22;;;;;;;3.47;3.17;;;;;;;;;;5048702;28;20225;-59
2021/01/04 03:31:47;;;;;;;3.83;3.47;;;;;;;;;;5045337;28;20479;-59
2021/01/04 03:34:13;;;;;;;4.20;3.10;;;;;;;;;;5050085;28;20255;-59
2021/01/04 03:36:38;;;;;;;4.50;3.33;;;;;;;;;;5052903;28;20217;-59
2021/01/04 03:39:03;;;;;;;3.73;3.40;;;;;;;;;;5048521;28;20226;-60
2021/01/04 03:41:29;;;;;;;3.87;3.47;;;;;;;;;;5045569;28;20338;-59
2021/01/04 03:43:55;;;;;;;3.90;3.43;;;;;;;;;;5051238;28;20226;-59
2021/01/04 03:46:21;;;;;;;3.33;3.00;;;;;;;;;;5052547;28;20242;-59
2021/01/04 03:48:46;;;;;;;3.23;2.93;;;;;;;;;;5047739;28;20551;-60
2021/01/04 03:51:11;;;;;;;4.43;3.90;;;;;;;;;;5045081;28;20225;-59
2021/01/04 03:53:36;;;;;;;3.30;3.00;;;;;;;;;;5049819;28;20368;-59
2021/01/04 03:56:02;;;;;;;3.50;3.20;;;;;;;;;;5052597;28;20218;-59
2021/01/04 03:58:27;;;;;;;4.47;3.60;;;;;;;;;;5043196;28;20618;-60
2021/01/04 04:00:53;;;;;;;4.43;3.47;;;;;;;;;;5052659;28;20232;-59
2021/01/04 04:03:18;;;;;;;5.47;3.80;;;;;;;;;;5070336;28;20220;-60
2021/01/04 04:05:43;;;;;;;3.30;3.00;;;;;;;;;;5045741;28;20296;-60
2021/01/04 04:08:08;;;;;;;3.60;3.30;;;;;;;;;;5049851;28;20290;-59
2021/01/04 04:10:34;;;;;;;3.33;3.10;;;;;;;;;;5051964;28;20365;-59
2021/01/04 04:12:59;;;;;;;3.77;3.10;;;;;;;;;;5047346;28;20220;-59
2021/01/04 04:15:25;;;;;;;3.20;2.80;;;;;;;;;;5044838;28;20615;-59
2021/01/04 04:17:50;;;;;;;4.30;3.57;;;;;;;;;;5050234;28;20225;-59
2021/01/04 04:20:20;;;;;;;4.07;3.40;;;;;;;;;;5037512;28;20499;-60
2021/01/04 04:22:47;;;;;;;3.23;2.93;;;;;;;;;;5031953;28;20305;-60
2021/01/04 04:25:14;;;;;;;3.97;3.40;;;;;;;;;;5045198;28;20544;-60
2021/01/04 04:27:40;;;;;;;4.07;3.10;;;;;;;;;;5032509;28;20439;-60
2021/01/04 04:30:08;;;;;;;3.83;3.43;;;;;;;;;;5045654;28;20478;-59
2021/01/04 04:32:34;;;;;;;3.30;3.03;;;;;;;;;;5051815;28;20294;-60
2021/01/04 04:34:59;;;;;;;3.80;3.50;;;;;;;;;;5051723;28;20468;-60
2021/01/04 04:37:24;;;;;;;4.00;3.10;;;;;;;;;;5044595;28;20237;-59
2021/01/04 04:39:50;;;;;;;3.40;3.13;;;;;;;;;;5045473;28;20702;-60
2021/01/04 04:42:15;;;;;;;3.90;3.60;;;;;;;;;;5051509;28;20322;-60
2021/01/04 04:44:49;;;;;;;3.67;3.30;;;;;;;;;;5050215;28;20237;-60
2021/01/04 04:47:32;;;;;;;2.60;2.40;;;;;;;;;;5031325;28;20227;-60
2021/01/04 04:50:11;;;;;;;3.00;2.70;;;;;;;;;;5042371;28;20454;-60
2021/01/04 04:53:19;;;;;;;3.43;2.90;;;;;;;;;;5049401;28;21763;-58
2021/01/04 04:56:03;;;;;;;3.40;3.07;;;;;;;;;;5033750;28;20472;-58
2021/01/04 04:58:40;;;;;;;3.63;3.23;;;;;;;;;;5041598;28;20457;-59
2021/01/04 05:01:13;;;;;;;3.40;2.67;;;;;;;;;;5033820;28;20803;-60
2021/01/04 05:03:54;;;;;;;3.77;3.40;;;;;;;;;;5049244;28;20472;-60
2021/01/04 05:06:47;;;;;;;3.33;3.03;;;;;;;;;;5033666;28;20475;-59
2021/01/04 05:09:34;;;;;;;3.43;2.63;;;;;;;;;;5042899;28;20940;-59
2021/01/04 05:12:20;;;;;;;3.87;2.73;;;;;;;;;;5036641;28;20493;-59
2021/01/04 05:14:53;;;;;;;4.40;3.10;;;;;;;;;;5045222;28;20547;-60
2021/01/04 05:17:38;;;;;;;3.50;2.50;;;;;;;;;;5050204;28;20484;-60
2021/01/04 05:20:25;;;;;;;3.60;3.07;;;;;;;;;;5050874;28;20447;-60
2021/01/04 05:23:15;;;;;;;3.20;2.70;;;;;;;;;;5047569;28;20467;-59
2021/01/04 05:26:02;;;;;;;2.90;2.70;;;;;;;;;;5030690;28;20456;-60
2021/01/04 05:29:18;;;;;;;2.57;2.37;;;;;;;;;;5043322;28;20471;-60
2021/01/04 05:31:52;;;;;;;3.27;2.60;;;;;;;;;;5001663;28;20469;-60
2021/01/04 05:34:36;;;;;;;4.17;2.70;;;;;;;;;;5004974;28;20485;-60
2021/01/04 05:37:24;;;;;;;3.07;2.87;;;;;;;;;;5023637;28;20812;-60
2021/01/04 05:40:12;;;;;;;3.20;2.47;;;;;;;;;;5018199;28;20454;-60
2021/01/04 05:43:11;;;;;;;2.83;2.50;;;;;;;;;;5035217;28;20983;-60
2021/01/04 05:45:53;;;;;;;3.53;3.23;;;;;;;;;;5035285;28;20457;-60
2021/01/04 05:48:49;;;;;;;2.53;2.33;;;;;;;;;;5043646;28;20460;-60
2021/01/04 05:51:32;;;;;;;3.30;3.00;;;;;;;;;;5042925;28;20543;-61
2021/01/04 05:53:57;;;;;;;2.83;2.33;;;;;;;;;;5043412;28;20499;-60
2021/01/04 05:56:25;;;;;;;3.50;3.20;;;;;;;;;;5028587;28;20464;-59
2021/01/04 05:58:52;;;;;;;3.43;3.10;;;;;;;;;;5044162;28;20217;-59
2021/01/04 06:01:24;;;;;;;2.67;2.47;;;;;;;;;;5049753;28;20536;-59
2021/01/04 06:03:59;;;;;;;3.03;2.73;;;;;;;;;;5049590;28;20480;-59
2021/01/04 06:06:53;;;;;;;3.60;3.30;;;;;;;;;;5030668;28;21081;-59
2021/01/04 06:09:19;;;;;;;3.30;3.00;;;;;;;;;;5038955;28;20838;-59
2021/01/04 06:11:48;;;;;;;3.03;2.73;;;;;;;;;;5045539;28;20545;-59
2021/01/04 06:14:13;;;;;;;2.77;2.50;;;;;;;;;;5049316;28;20460;-59
2021/01/04 06:16:42;;;;;;;4.20;3.10;;;;;;;;;;5047995;28;20542;-59
2021/01/04 06:19:14;;;;;;;3.83;3.13;;;;;;;;;;5042052;28;20261;-60
2021/01/04 06:21:57;;;;;;;5.03;4.63;;;;;;;;;;5044221;28;20477;-59
2021/01/04 06:24:32;;;;;;;4.27;3.57;;;;;;;;;;5031392;28;20469;-59
2021/01/04 06:27:05;;;;;;;3.50;3.20;;;;;;;;;;5043235;28;20464;-59
2021/01/04 06:29:34;;;;;;;3.20;2.70;;;;;;;;;;5055225;28;20453;-59
2021/01/04 06:32:00;;;;;;;2.70;2.50;;;;;;;;;;5042686;28;20489;-59
2021/01/04 06:34:36;;;;;;;3.63;3.03;;;;;;;;;;5047244;28;20483;-59
2021/01/04 06:37:09;;;;;;;3.43;2.60;;;;;;;;;;5050115;28;20464;-59
2021/01/04 06:39:35;;;;;;;3.20;2.90;;;;;;;;;;5046050;28;20761;-59
2021/01/04 06:42:11;;;;;;;3.40;2.80;;;;;;;;;;5041892;28;20525;-59
2021/01/04 06:44:36;;;;;;;2.70;2.50;;;;;;;;;;5048183;28;20229;-59
2021/01/04 06:47:25;;;;;;;4.53;3.47;;;;;;;;;;5054714;28;20541;-59
2021/01/04 06:50:18;;;;;;;4.13;3.30;;;;;;;;;;5046134;28;20222;-59
2021/01/04 06:53:08;;;;;;;2.87;2.67;;;;;;;;;;5053465;28;20545;-59
2021/01/04 06:55:56;;;;;;;3.93;3.60;;;;;;;;;;5053628;28;20456;-60
2021/01/04 06:58:49;;;;;;;3.50;3.20;;;;;;;;;;5036453;28;20837;-59
2021/01/04 07:01:27;;;;;;;5.20;3.17;;;;;;;;;;5051344;28;20480;-60
2021/01/04 07:04:12;;;;;;;4.70;3.60;;;;;;;;;;5053697;28;20457;-59
2021/01/04 07:07:00;;;;;;;3.83;3.13;;;;;;;;;;5049357;28;20460;-59
2021/01/04 07:09:44;;;;;;;4.50;3.90;;;;;;;;;;5034745;28;20473;-60
2021/01/04 07:12:17;;;;;;;4.53;4.13;;;;;;;;;;5046059;28;20874;-61
2021/01/04 07:15:02;;;;;;;4.63;4.17;;;;;;;;;;5048223;28;21257;-60
2021/01/04 07:17:36;;;;;;;4.83;4.30;;;;;;;;;;5054542;28;20472;-60
2021/01/04 07:20:17;;;;;;;5.77;4.40;;;;;;;;;;5051897;28;20542;-59
2021/01/04 07:23:05;;;;;;;4.17;3.20;;;;;;;;;;5036447;28;20444;-59
2021/01/04 07:25:57;;;;;;;3.20;2.93;;;;;;;;;;5044980;28;20469;-60
2021/01/04 07:28:38;;;;;;;5.63;3.93;;;;;;;;;;5044809;28;20618;-59
2021/01/04 07:31:08;;;;;;;4.90;4.20;;;;;;;;;;5048116;28;20754;-59
2021/01/04 07:33:45;;;;;;;8.07;4.10;;;;;;;;;;5051256;28;20871;-60
2021/01/04 07:36:18;;;;;;;4.67;4.10;;;;;;;;;;5052457;28;20457;-60
2021/01/04 07:39:11;;;;;;;4.53;4.03;;;;;;;;;;5032627;28;20455;-60
2021/01/04 07:41:49;;;;;;;6.33;4.43;;;;;;;;;;5045192;28;20554;-60
2021/01/04 07:44:32;;;;;;;5.10;3.83;;;;;;;;;;5046750;28;20465;-58
2021/01/04 07:47:26;;;;;;;7.30;4.23;;;;;;;;;;5034148;28;20539;-59
2021/01/04 07:50:22;;;;;;;5.20;4.70;;;;;;;;;;5040363;28;20466;-60
2021/01/04 07:53:02;;;;;;;5.30;4.27;;;;;;;;;;5087523;28;20455;-60
2021/01/04 07:55:56;;;;;;;4.43;4.03;;;;;;;;;;5045718;28;20548;-59
2021/01/04 07:58:24;;;;;;;5.60;3.80;;;;;;;;;;5035221;28;20504;-61
2021/01/04 08:01:13;;;;;;;5.13;4.50;;;;;;;;;;5052443;28;20471;-59
2021/01/04 08:04:14;;;;;;;4.30;3.70;;;;;;;;;;5050096;28;20472;-59
2021/01/04 08:06:52;;;;;;;4.80;3.87;;;;;;;;;;5048247;28;20471;-60
2021/01/04 08:09:55;;;;;;;5.33;4.63;;;;;;;;;;5044702;28;20536;-59
2021/01/04 08:12:34;;;;;;;4.60;4.00;;;;;;;;;;5043940;28;21066;-60
2021/01/04 08:15:26;;;;;;;4.23;3.80;;;;;;;;;;5045649;28;20481;-59
2021/01/04 08:17:57;;;;;;;5.23;4.73;;;;;;;;;;5035189;28;20473;-60
2021/01/04 08:20:23;;;;;;;3.90;3.60;;;;;;;;;;5044311;28;20461;-59
2021/01/04 08:23:22;;;;;;;4.20;3.70;;;;;;;;;;5048572;28;20948;-59
2021/01/04 08:26:07;;;;;;;3.93;3.60;;;;;;;;;;5052015;28;20228;-60
2021/01/04 08:28:42;;;;;;;4.40;3.90;;;;;;;;;;5051319;28;20459;-58
2021/01/04 08:31:26;;;;;;;4.70;4.20;;;;;;;;;;5047820;28;20846;-60
2021/01/04 08:33:53;;;;;;;4.60;4.20;;;;;;;;;;5043739;28;20802;-59
2021/01/04 08:36:23;;;;;;;5.53;4.57;;;;;;;;;;5044512;28;20472;-59
2021/01/04 08:38:49;;;;;;;5.20;4.10;;;;;;;;;;5051399;28;20936;-60
2021/01/04 08:41:14;;;;;;;4.60;4.20;;;;;;;;;;5051104;28;20552;-60
2021/01/04 08:43:45;;;;;;;5.07;3.70;;;;;;;;;;5043447;28;20471;-61
2021/01/04 08:46:22;;;;;;;4.30;3.90;;;;;;;;;;5044693;28;20219;-59
2021/01/04 08:48:49;;;;;;;4.17;3.50;;;;;;;;;;5034806;28;20463;-61
2021/01/04 08:51:24;;;;;;;4.27;3.87;;;;;;;;;;5044526;28;20464;-60
2021/01/04 08:54:03;;;;;;;4.70;4.30;;;;;;;;;;5045023;28;20497;-60
2021/01/04 08:57:05;;;;;;;5.03;4.40;;;;;;;;;;5027165;28;20470;-60
2021/01/04 08:59:34;;;;;;;6.23;4.73;;;;;;;;;;5022816;28;20522;-61
2021/01/04 09:02:07;;;;;;;4.93;4.00;;;;;;;;;;5048801;28;20479;-60
2021/01/04 09:04:35;;;;;;;4.10;3.67;;;;;;;;;;5043953;28;20456;-61
2021/01/04 09:07:17;;;;;;;4.70;4.30;;;;;;;;;;5043316;28;20462;-60
2021/01/04 09:09:49;;;;;;;4.77;4.27;;;;;;;;;;5033198;28;20464;-60
2021/01/04 09:12:14;;;;;;;6.17;4.33;;;;;;;;;;5054678;28;20463;-59
2021/01/04 09:14:58;;;;;;;3.90;3.60;;;;;;;;;;5044808;28;20464;-61
2021/01/04 09:17:41;;;;;;;6.57;3.80;;;;;;;;;;5043180;28;20244;-59
2021/01/04 09:20:54;;;;;;;4.70;4.30;;;;;;;;;;5045230;28;20462;-60
2021/01/04 09:23:26;;;;;;;3.90;3.60;;;;;;;;;;5040861;28;20442;-59
2021/01/04 09:26:07;;;;;;;6.83;4.37;;;;;;;;;;5037277;28;20461;-59
2021/01/04 09:28:43;;;;;;;5.83;4.50;;;;;;;;;;5051419;28;20539;-59
2021/01/04 09:31:09;;;;;;;5.90;4.70;;;;;;;;;;5035833;28;20480;-61
2021/01/04 09:33:45;;;;;;;7.30;4.70;;;;;;;;;;5069823;28;20495;-60
2021/01/04 09:36:10;;;;;;;6.17;4.83;;;;;;;;;;5036932;28;20455;-59
2021/01/04 09:38:36;;;;;;;5.20;4.63;;;;;;;;;;5070069;28;20525;-60
2021/01/04 09:41:07;;;;;;;5.43;4.93;;;;;;;;;;5069160;28;20277;-59
2021/01/04 09:43:34;;;;;;;6.10;5.07;;;;;;;;;;5037361;28;20223;-60
2021/01/04 09:46:19;;;;;;;6.60;5.47;;;;;;;;;;5037485;28;20462;-60
2021/01/04 09:48:57;;;;;;;5.67;5.10;;;;;;;;;;5036227;28;20455;-59
2021/01/04 09:51:32;;;;;;;6.20;5.47;;;;;;;;;;5035258;28;20468;-59
2021/01/04 09:54:01;;;;;;;6.40;5.40;;;;;;;;;;5035988;28;20456;-59
2021/01/04 09:56:29;;;;;;;6.30;5.70;;;;;;;;;;5037827;28;20493;-59
2021/01/04 09:59:03;;;;;;;6.80;5.07;;;;;;;;;;5036173;28;20453;-59
2021/01/04 10:01:31;;;;;;;6.67;5.40;;;;;;;;;;5037048;28;20937;-59
2021/01/04 10:03:58;;;;;;;7.77;6.07;;;;;;;;;;5036537;28;20460;-59
2021/01/04 10:06:24;;;;;;;5.73;5.23;;;;;;;;;;5036939;28;20462;-59
2021/01/04 10:08:50;;;;;;;6.37;5.20;;;;;;;;;;5036308;28;20478;-59
2021/01/04 10:11:21;;;;;;;8.03;5.80;;;;;;;;;;5037010;28;20467;-59
2021/01/04 10:13:47;;;;;;;6.83;5.73;;;;;;;;;;5036452;28;20554;-59
2021/01/04 10:16:20;;;;;;;7.20;5.90;;;;;;;;;;5036801;28;20470;-60
2021/01/04 10:19:13;;;;;;;6.83;6.10;;;;;;;;;;5036088;28;20219;-59
2021/01/04 10:21:48;;;;;;;7.80;6.33;;;;;;;;;;5034691;28;20473;-59
2021/01/04 10:24:24;;;;;;;6.43;5.27;;;;;;;;;;5036791;28;20472;-59
2021/01/04 10:26:50;;;;;;;7.20;5.93;;;;;;;;;;5069220;28;20573;-59
2021/01/04 10:29:41;;;;;;;7.10;6.40;;;;;;;;;;5036107;28;20945;-59
2021/01/04 10:32:34;;;;;;;8.73;6.80;;;;;;;;;;5034876;28;20462;-60
2021/01/04 10:35:00;;;;;;;6.23;5.60;;;;;;;;;;5036292;28;20465;-60
2021/01/04 10:37:38;;;;;;;8.30;6.20;;;;;;;;;;5035657;28;20534;-60
2021/01/04 10:40:13;;;;;;;7.47;5.33;;;;;;;;;;5068455;28;20241;-59
2021/01/04 10:42:39;;;;;;;7.10;6.37;;;;;;;;;;5036660;28;20473;-60
2021/01/04 10:45:12;;;;;;;8.53;6.70;;;;;;;;;;5036285;28;20450;-59
2021/01/04 10:47:45;;;;;;;7.10;6.27;;;;;;;;;;5069052;28;20461;-59
2021/01/04 10:50:17;;;;;;;9.43;6.67;;;;;;;;;;5035492;28;20448;-59
2021/01/04 10:52:55;;;;;;;7.97;6.47;;;;;;;;;;5067833;28;20469;-66
2021/01/04 10:55:22;;;;;;;9.60;5.87;;;;;;;;;;5034683;28;20482;-66
2021/01/04 10:57:50;;;;;;;8.60;7.00;;;;;;;;;;5035334;28;20892;-66
2021/01/04 11:00:26;;;;;;;9.80;7.77;;;;;;;;;;5034000;28;20460;-66
2021/01/04 11:02:53;;;;;;;9.57;7.23;;;;;;;;;;5034358;28;20456;-65
2021/01/04 11:05:32;;;;;;;8.10;6.53;;;;;;;;;;5034689;28;20456;-66
2021/01/04 11:08:18;;;;;;;7.87;7.10;;;;;;;;;;5034949;28;20453;-65
2021/01/04 11:10:51;;;;;;;9.47;7.30;;;;;;;;;;5034653;28;20526;-66
2021/01/04 11:13:28;;;;;;;8.07;6.50;;;;;;;;;;5034385;28;20453;-65
2021/01/04 11:16:26;;;;;;;7.70;6.40;;;;;;;;;;5034877;28;20535;-66
2021/01/04 11:18:53;;;;;;;8.57;6.93;;;;;;;;;;5022084;28;20483;-67
2021/01/04 11:21:31;;;;;;;8.07;7.10;;;;;;;;;;5034817;28;20469;-64
2021/01/04 11:23:56;;;;;;;9.43;7.40;;;;;;;;;;5034569;28;20460;-65
2021/01/04 11:26:22;;;;;;;10.77;8.80;;;;;;;;;;5035276;28;20525;-67
2021/01/04 11:28:47;;;;;;;11.47;9.90;;;;;;;;;;5034888;28;20314;-65
2021/01/04 11:31:12;;;;;;;12.20;8.50;;;;;;;;;;5036786;28;20241;-65
2021/01/04 11:33:37;;;;;;;12.73;7.20;;;;;;;;;;5038069;28;20309;-65
2021/01/04 11:36:03;;;;;;;11.50;7.20;;;;;;;;;;5037594;28;20238;-66
2021/01/04 11:38:28;;;;;;;9.60;7.80;;;;;;;;;;5038335;28;20626;-65
2021/01/04 11:40:54;;;;;;;8.97;8.00;;;;;;;;;;5037503;28;20241;-65
2021/01/04 11:43:19;;;;;;;13.07;7.73;;;;;;;;;;5038141;28;20214;-65
2021/01/04 11:45:44;;;;;;;8.27;7.00;;;;;;;;;;5037736;28;20231;-65
2021/01/04 11:48:10;;;;;;;10.07;7.63;;;;;;;;;;5038056;28;20217;-65
2021/01/04 11:50:35;;;;;;;8.40;7.60;;;;;;;;;;5037669;28;20302;-66
2021/01/04 11:53:00;;;;;;;8.80;7.60;;;;;;;;;;5037696;28;20289;-66
2021/01/04 11:55:26;;;;;;;15.80;9.90;;;;;;;;;;5038052;28;20223;-65
2021/01/04 11:57:51;;;;;;;12.73;8.30;;;;;;;;;;5037604;28;20223;-66
2021/01/04 12:00:18;;;;;;;10.33;7.97;;;;;;;;;;5037704;28;20272;-66
2021/01/04 12:02:44;;;;;;;8.23;6.73;;;;;;;;;;5034880;28;20235;-65
2021/01/04 12:05:11;;;;;;;10.50;7.07;;;;;;;;;;5037748;28;20506;-66
2021/01/04 12:07:37;;;;;;;11.00;7.83;;;;;;;;;;5036958;28;20272;-66
2021/01/04 12:10:03;;;;;;;9.10;7.43;;;;;;;;;;5036642;28;20453;-66
2021/01/04 12:12:28;;;;;;;10.40;6.87;;;;;;;;;;5036859;28;20253;-65
2021/01/04 12:14:53;;;;;;;10.97;7.77;;;;;;;;;;5036378;28;20235;-65
2021/01/04 12:17:21;;;;;;;11.57;8.10;;;;;;;;;;5037047;28;20701;-65
2021/01/04 12:19:46;;;;;;;8.53;7.67;;;;;;;;;;5035805;28;20221;-65
2021/01/04 12:22:12;;;;;;;10.33;8.93;;;;;;;;;;5036753;28;20466;-66
2021/01/04 12:24:39;;;;;;;13.13;8.73;;;;;;;;;;5037963;28;20638;-65
2021/01/04 12:27:07;;;;;;;10.87;8.40;;;;;;;;;;5036644;28;20581;-65
2021/01/04 12:29:33;;;;;;;11.00;8.17;;;;;;;;;;5037349;28;20469;-67
2021/01/04 12:31:59;;;;;;;9.10;7.83;;;;;;;;;;5036678;28;20437;-66
2021/01/04 12:34:24;;;;;;;15.10;8.50;;;;;;;;;;5037327;28;20847;-65
2021/01/04 12:36:50;;;;;;;14.13;8.47;;;;;;;;;;5036603;28;20521;-66
2021/01/04 12:39:15;;;;;;;10.20;7.93;;;;;;;;;;5036934;28;20220;-66
2021/01/04 12:41:41;;;;;;;12.17;9.00;;;;;;;;;;5036933;28;20242;-66
2021/01/04 12:44:09;;;;;;;11.73;8.60;;;;;;;;;;5037119;28;20247;-65
2021/01/04 12:46:35;;;;;;;11.97;8.50;;;;;;;;;;5036648;28;20457;-65
2021/01/04 12:49:00;;;;;;;9.43;7.87;;;;;;;;;;5034815;28;20457;-65
2021/01/04 12:51:25;;;;;;;9.90;8.20;;;;;;;;;;5036959;28;20314;-66
2021/01/04 12:53:50;;;;;;;9.67;8.00;;;;;;;;;;5036599;28;20215;-64
2021/01/04 12:56:18;;;;;;;10.23;7.30;;;;;;;;;;5036746;28;20310;-65
2021/01/04 12:58:44;;;;;;;10.50;8.47;;;;;;;;;;5035832;28;20552;-64
2021/01/04 13:01:11;;;;;;;10.57;8.60;;;;;;;;;;5036086;28;20976;-65
2021/01/04 13:03:37;;;;;;;10.57;8.13;;;;;;;;;;5036332;28;20462;-65
2021/01/04 13:06:02;;;;;;;12.87;9.30;;;;;;;;;;5036158;28;21013;-65
2021/01/04 13:08:27;;;;;;;9.63;8.63;;;;;;;;;;5036565;28;20235;-65
2021/01/04 13:10:53;;;;;;;11.77;8.30;;;;;;;;;;5035852;28;20733;-66
2021/01/04 13:13:18;;;;;;;12.13;8.43;;;;;;;;;;5036315;28;20226;-65
2021/01/04 13:15:43;;;;;;;10.20;7.50;;;;;;;;;;5035910;28;20757;-64
2021/01/04 13:18:08;;;;;;;11.63;8.17;;;;;;;;;;5036411;28;20229;-65
2021/01/04 13:20:34;;;;;;;12.37;8.10;;;;;;;;;;5035858;28;20225;-66
2021/01/04 13:22:59;;;;;;;12.10;8.33;;;;;;;;;;5035451;28;20304;-66
2021/01/04 13:25:24;;;;;;;15.97;9.20;;;;;;;;;;5035783;28;20214;-65
2021/01/04 13:27:49;;;;;;;10.43;8.70;;;;;;;;;;5035557;28;20297;-65
2021/01/04 13:30:15;;;;;;;14.00;8.63;;;;;;;;;;5035778;28;20248;-65
2021/01/04 13:32:41;;;;;;;11.20;8.97;;;;;;;;;;5035850;28;20215;-65
2021/01/04 13:35:07;;;;;;;13.87;8.67;;;;;;;;;;5035747;28;20219;-66
2021/01/04 13:37:32;;;;;;;13.60;9.43;;;;;;;;;;5035928;28;20847;-66
2021/01/04 13:39:57;;;;;;;13.47;8.30;;;;;;;;;;5035268;28;20222;-66
2021/01/04 13:42:23;;;;;;;12.13;8.17;;;;;;;;;;5035583;28;20298;-66
2021/01/04 13:44:48;;;;;;;11.80;9.20;;;;;;;;;;5035702;28;20226;-65
2021/01/04 13:47:15;;;;;;;10.10;7.80;;;;;;;;;;5035707;28;20309;-67
2021/01/04 13:49:45;;;;;;;10.23;8.40;;;;;;;;;;5035890;28;20292;-65
2021/01/04 13:52:10;;;;;;;11.40;9.00;;;;;;;;;;5034524;28;20526;-64
2021/01/04 13:54:36;;;;;;;14.33;10.03;;;;;;;;;;5035183;28;20491;-65
2021/01/04 13:57:01;;;;;;;9.33;8.30;;;;;;;;;;5035279;28;20317;-65
2021/01/04 13:59:26;;;;;;;11.00;7.93;;;;;;;;;;5035533;28;20538;-65
2021/01/04 14:02:00;;;;;;;10.40;7.70;;;;;;;;;;5034888;28;20249;-64
2021/01/04 14:04:26;;;;;;;14.47;10.50;;;;;;;;;;5035406;28;20249;-66
2021/01/04 14:06:51;;;;;;;13.57;10.60;;;;;;;;;;5035147;28;20469;-64
2021/01/04 14:09:16;;;;;;;14.47;10.77;;;;;;;;;;5035134;28;20369;-65
2021/01/04 14:11:42;;;;;;;14.60;9.00;;;;;;;;;;5035656;28;20653;-65
2021/01/04 14:14:08;;;;;;;15.33;11.00;;;;;;;;;;5035062;28;20218;-65
2021/01/04 14:16:33;;;;;;;11.27;8.97;;;;;;;;;;5035476;28;20614;-65
2021/01/04 14:18:59;;;;;;;12.10;9.40;;;;;;;;;;5035250;28;20242;-65
2021/01/04 14:21:26;;;;;;;12.50;8.70;;;;;;;;;;5036058;28;20243;-60
2021/01/04 14:23:51;;;;;;;11.70;8.90;;;;;;;;;;5036563;28;20482;-60
2021/01/04 14:26:32;;;;;;;16.53;9.43;;;;;;;;;;5036743;28;20529;-60
2021/01/04 14:28:57;;;;;;;11.60;9.70;;;;;;;;;;5036215;28;20276;-59
2021/01/04 14:31:22;;;;;;;10.80;8.60;;;;;;;;;;5037484;28;20461;-60
2021/01/04 14:33:48;;;;;;;11.83;8.53;;;;;;;;;;5036098;28;20237;-61
2021/01/04 14:36:14;;;;;;;10.23;9.17;;;;;;;;;;5036843;28;20298;-60
2021/01/04 14:38:39;;;;;;;10.43;8.67;;;;;;;;;;5036348;28;20219;-60
2021/01/04 14:41:06;;;;;;;9.43;8.43;;;;;;;;;;5036509;28;20459;-59
2021/01/04 14:43:32;;;;;;;14.10;9.47;;;;;;;;;;5035662;28;20327;-60
2021/01/04 14:45:57;;;;;;;11.07;8.80;;;;;;;;;;5036532;28;20459;-59
2021/01/04 14:48:27;;;;;;;12.73;9.33;;;;;;;;;;5036803;28;20230;-60
2021/01/04 14:50:52;;;;;;;8.77;7.57;;;;;;;;;;5036149;28;20668;-60
2021/01/04 14:53:18;;;;;;;12.30;8.50;;;;;;;;;;5036206;28;20424;-59
2021/01/04 14:55:43;;;;;;;11.73;9.77;;;;;;;;;;5036108;28;20441;-59
2021/01/04 14:58:08;;;;;;;10.03;8.00;;;;;;;;;;5035846;28;20226;-60
2021/01/04 15:00:34;;;;;;;12.33;8.33;;;;;;;;;;5036604;28;20434;-60
2021/01/04 15:02:59;;;;;;;10.43;9.20;;;;;;;;;;5035893;28;20212;-61
2021/01/04 15:05:25;;;;;;;9.50;8.40;;;;;;;;;;5037661;28;20215;-60
2021/01/04 15:07:50;;;;;;;11.30;9.07;;;;;;;;;;5040128;28;20235;-61
2021/01/04 15:10:15;;;;;;;11.30;9.33;;;;;;;;;;5040519;28;20592;-60
2021/01/04 15:12:41;;;;;;;9.37;8.17;;;;;;;;;;5040557;28;20220;-60
2021/01/04 15:15:09;;;;;;;9.00;7.60;;;;;;;;;;5039976;28;20325;-60
2021/01/04 15:17:34;;;;;;;9.43;7.50;;;;;;;;;;5040524;28;20268;-60
2021/01/04 15:20:00;;;;;;;11.20;8.37;;;;;;;;;;5039749;28;20543;-60